sensor_id;sensor_type;location;lat;lon;timestamp;P1;durP1;ratioP1;P2;durP2;ratioP2
3901;SDS011;1966;49.908;9.156;2023-08-07T00:02:26;4.00;;;2.07;;
3901;SDS011;1966;49.908;9.156;2023-08-07T00:07:27;3.03;;;1.93;;
3901;SDS011;1966;49.908;9.156;2023-08-07T00:12:26;5.07;;;1.97;;
3901;SDS011;1966;49.908;9.156;2023-08-07T00:17:26;4.20;;;1.93;;
3901;SDS011;1966;49.908;9.156;2023-08-07T00:22:25;2.30;;;2.10;;
3901;SDS011;1966;49.908;9.156;2023-08-07T00:27:25;3.07;;;2.07;;
3901;SDS011;1966;49.908;9.156;2023-08-07T00:32:25;2.77;;;2.20;;
3901;SDS011;1966;49.908;9.156;2023-08-07T00:37:24;2.83;;;1.87;;
3901;SDS011;1966;49.908;9.156;2023-08-07T00:42:23;2.57;;;1.90;;
3901;SDS011;1966;49.908;9.156;2023-08-07T00:47:24;5.00;;;2.33;;
3901;SDS011;1966;49.908;9.156;2023-08-07T00:52:23;3.70;;;2.23;;
3901;SDS011;1966;49.908;9.156;2023-08-07T00:57:22;4.33;;;2.17;;
3901;SDS011;1966;49.908;9.156;2023-08-07T01:02:24;3.30;;;2.40;;
3901;SDS011;1966;49.908;9.156;2023-08-07T01:07:23;5.37;;;1.80;;
3901;SDS011;1966;49.908;9.156;2023-08-07T01:12:23;4.03;;;2.27;;
3901;SDS011;1966;49.908;9.156;2023-08-07T01:17:26;5.40;;;2.30;;
3901;SDS011;1966;49.908;9.156;2023-08-07T01:22:27;6.00;;;2.17;;
3901;SDS011;1966;49.908;9.156;2023-08-07T01:27:33;5.00;;;2.50;;
3901;SDS011;1966;49.908;9.156;2023-08-07T01:32:34;2.70;;;2.20;;
3901;SDS011;1966;49.908;9.156;2023-08-07T01:37:39;7.07;;;2.50;;
3901;SDS011;1966;49.908;9.156;2023-08-07T01:42:38;4.30;;;2.30;;
3901;SDS011;1966;49.908;9.156;2023-08-07T01:47:38;3.40;;;2.30;;
3901;SDS011;1966;49.908;9.156;2023-08-07T01:52:38;5.77;;;2.70;;
3901;SDS011;1966;49.908;9.156;2023-08-07T01:57:38;5.80;;;2.50;;
3901;SDS011;1966;49.908;9.156;2023-08-07T02:02:37;10.53;;;2.83;;
3901;SDS011;1966;49.908;9.156;2023-08-07T02:07:36;7.60;;;3.33;;
3901;SDS011;1966;49.908;9.156;2023-08-07T02:12:37;9.30;;;2.87;;
3901;SDS011;1966;49.908;9.156;2023-08-07T02:17:36;10.30;;;3.10;;
3901;SDS011;1966;49.908;9.156;2023-08-07T02:22:38;5.60;;;2.77;;
3901;SDS011;1966;49.908;9.156;2023-08-07T02:27:39;8.70;;;3.37;;
3901;SDS011;1966;49.908;9.156;2023-08-07T02:32:38;5.63;;;2.60;;
3901;SDS011;1966;49.908;9.156;2023-08-07T02:37:39;8.93;;;3.30;;
3901;SDS011;1966;49.908;9.156;2023-08-07T02:42:40;8.40;;;3.00;;
3901;SDS011;1966;49.908;9.156;2023-08-07T02:47:39;8.00;;;3.50;;
3901;SDS011;1966;49.908;9.156;2023-08-07T02:52:38;5.10;;;2.83;;
3901;SDS011;1966;49.908;9.156;2023-08-07T02:57:37;7.67;;;3.57;;
3901;SDS011;1966;49.908;9.156;2023-08-07T03:02:38;9.60;;;3.53;;
3901;SDS011;1966;49.908;9.156;2023-08-07T03:07:37;10.80;;;3.67;;
3901;SDS011;1966;49.908;9.156;2023-08-07T03:12:36;12.93;;;3.60;;
3901;SDS011;1966;49.908;9.156;2023-08-07T03:17:37;6.47;;;3.80;;
3901;SDS011;1966;49.908;9.156;2023-08-07T03:22:37;9.13;;;3.70;;
3901;SDS011;1966;49.908;9.156;2023-08-07T03:27:36;6.00;;;3.50;;
3901;SDS011;1966;49.908;9.156;2023-08-07T03:32:35;9.67;;;3.70;;
3901;SDS011;1966;49.908;9.156;2023-08-07T03:37:36;8.97;;;3.90;;
3901;SDS011;1966;49.908;9.156;2023-08-07T03:42:35;7.63;;;3.43;;
3901;SDS011;1966;49.908;9.156;2023-08-07T03:47:34;6.77;;;3.67;;
3901;SDS011;1966;49.908;9.156;2023-08-07T03:52:33;10.53;;;3.70;;
3901;SDS011;1966;49.908;9.156;2023-08-07T03:57:34;6.87;;;3.20;;
3901;SDS011;1966;49.908;9.156;2023-08-07T04:02:33;8.63;;;3.60;;
3901;SDS011;1966;49.908;9.156;2023-08-07T04:07:32;9.37;;;3.37;;
3901;SDS011;1966;49.908;9.156;2023-08-07T04:12:32;9.13;;;3.27;;
3901;SDS011;1966;49.908;9.156;2023-08-07T04:17:33;6.10;;;3.60;;
3901;SDS011;1966;49.908;9.156;2023-08-07T04:22:32;11.37;;;3.57;;
3901;SDS011;1966;49.908;9.156;2023-08-07T04:27:31;5.23;;;3.10;;
3901;SDS011;1966;49.908;9.156;2023-08-07T04:32:32;10.97;;;4.20;;
3901;SDS011;1966;49.908;9.156;2023-08-07T04:37:32;7.47;;;3.37;;
3901;SDS011;1966;49.908;9.156;2023-08-07T04:42:31;6.43;;;3.00;;
3901;SDS011;1966;49.908;9.156;2023-08-07T04:47:30;9.23;;;3.23;;
3901;SDS011;1966;49.908;9.156;2023-08-07T04:52:31;6.23;;;3.77;;
3901;SDS011;1966;49.908;9.156;2023-08-07T04:57:30;7.83;;;3.43;;
3901;SDS011;1966;49.908;9.156;2023-08-07T05:02:29;6.70;;;3.63;;
3901;SDS011;1966;49.908;9.156;2023-08-07T05:07:29;5.73;;;3.00;;
3901;SDS011;1966;49.908;9.156;2023-08-07T05:12:29;7.80;;;3.40;;
3901;SDS011;1966;49.908;9.156;2023-08-07T05:17:28;7.53;;;3.27;;
3901;SDS011;1966;49.908;9.156;2023-08-07T05:22:28;4.83;;;2.90;;
3901;SDS011;1966;49.908;9.156;2023-08-07T05:27:27;6.53;;;3.33;;
3901;SDS011;1966;49.908;9.156;2023-08-07T05:32:28;7.03;;;3.33;;
3901;SDS011;1966;49.908;9.156;2023-08-07T05:37:27;5.60;;;3.10;;
3901;SDS011;1966;49.908;9.156;2023-08-07T05:42:27;6.13;;;2.90;;
3901;SDS011;1966;49.908;9.156;2023-08-07T05:47:28;4.90;;;3.27;;
3901;SDS011;1966;49.908;9.156;2023-08-07T05:52:27;4.87;;;3.10;;
3901;SDS011;1966;49.908;9.156;2023-08-07T05:57:26;8.40;;;2.77;;
3901;SDS011;1966;49.908;9.156;2023-08-07T06:02:26;11.70;;;3.67;;
3901;SDS011;1966;49.908;9.156;2023-08-07T06:07:26;5.13;;;2.87;;
3901;SDS011;1966;49.908;9.156;2023-08-07T06:12:26;6.63;;;3.73;;
3901;SDS011;1966;49.908;9.156;2023-08-07T06:17:25;5.73;;;3.20;;
3901;SDS011;1966;49.908;9.156;2023-08-07T06:22:24;9.10;;;3.30;;
3901;SDS011;1966;49.908;9.156;2023-08-07T06:27:25;8.47;;;3.10;;
3901;SDS011;1966;49.908;9.156;2023-08-07T06:32:24;8.20;;;3.20;;
3901;SDS011;1966;49.908;9.156;2023-08-07T06:37:24;5.03;;;3.07;;
3901;SDS011;1966;49.908;9.156;2023-08-07T06:42:24;5.40;;;3.17;;
3901;SDS011;1966;49.908;9.156;2023-08-07T06:47:23;4.63;;;3.13;;
3901;SDS011;1966;49.908;9.156;2023-08-07T06:52:23;5.83;;;3.20;;
3901;SDS011;1966;49.908;9.156;2023-08-07T06:57:22;9.00;;;3.70;;
3901;SDS011;1966;49.908;9.156;2023-08-07T07:02:22;7.17;;;3.63;;
3901;SDS011;1966;49.908;9.156;2023-08-07T07:07:22;4.83;;;2.90;;
3901;SDS011;1966;49.908;9.156;2023-08-07T07:12:21;6.87;;;3.70;;
3901;SDS011;1966;49.908;9.156;2023-08-07T07:17:20;10.63;;;3.83;;
3901;SDS011;1966;49.908;9.156;2023-08-07T07:22:21;4.73;;;3.47;;
3901;SDS011;1966;49.908;9.156;2023-08-07T07:27:20;7.70;;;3.40;;
3901;SDS011;1966;49.908;9.156;2023-08-07T07:32:20;7.20;;;3.30;;
3901;SDS011;1966;49.908;9.156;2023-08-07T07:37:21;7.87;;;4.30;;
3901;SDS011;1966;49.908;9.156;2023-08-07T07:42:20;4.57;;;3.43;;
3901;SDS011;1966;49.908;9.156;2023-08-07T07:47:20;8.50;;;4.10;;
3901;SDS011;1966;49.908;9.156;2023-08-07T07:52:21;5.60;;;3.20;;
3901;SDS011;1966;49.908;9.156;2023-08-07T07:57:20;4.63;;;2.80;;
3901;SDS011;1966;49.908;9.156;2023-08-07T08:02:20;5.33;;;2.80;;
3901;SDS011;1966;49.908;9.156;2023-08-07T08:07:21;5.17;;;2.63;;
3901;SDS011;1966;49.908;9.156;2023-08-07T08:12:21;8.50;;;4.43;;
3901;SDS011;1966;49.908;9.156;2023-08-07T08:17:20;8.10;;;2.90;;
3901;SDS011;1966;49.908;9.156;2023-08-07T08:22:20;7.37;;;3.43;;
3901;SDS011;1966;49.908;9.156;2023-08-07T08:27:20;6.30;;;3.13;;
3901;SDS011;1966;49.908;9.156;2023-08-07T08:32:19;7.83;;;2.50;;
3901;SDS011;1966;49.908;9.156;2023-08-07T08:37:20;2.77;;;2.50;;
3901;SDS011;1966;49.908;9.156;2023-08-07T08:42:19;4.20;;;2.70;;
3901;SDS011;1966;49.908;9.156;2023-08-07T08:47:19;4.00;;;3.30;;
3901;SDS011;1966;49.908;9.156;2023-08-07T08:52:20;3.77;;;2.87;;
3901;SDS011;1966;49.908;9.156;2023-08-07T08:57:20;3.70;;;3.30;;
3901;SDS011;1966;49.908;9.156;2023-08-07T09:02:19;4.10;;;2.53;;
3901;SDS011;1966;49.908;9.156;2023-08-07T09:07:20;3.27;;;2.60;;
3901;SDS011;1966;49.908;9.156;2023-08-07T09:12:20;6.67;;;3.83;;
3901;SDS011;1966;49.908;9.156;2023-08-07T09:17:20;3.60;;;2.77;;
3901;SDS011;1966;49.908;9.156;2023-08-07T09:22:21;4.70;;;2.93;;
3901;SDS011;1966;49.908;9.156;2023-08-07T09:27:21;4.10;;;2.57;;
3901;SDS011;1966;49.908;9.156;2023-08-07T09:32:20;5.47;;;3.40;;
3901;SDS011;1966;49.908;9.156;2023-08-07T09:37:22;9.00;;;3.43;;
3901;SDS011;1966;49.908;9.156;2023-08-07T09:42:22;5.30;;;2.97;;
3901;SDS011;1966;49.908;9.156;2023-08-07T09:47:21;9.83;;;4.30;;
3901;SDS011;1966;49.908;9.156;2023-08-07T09:52:22;4.93;;;3.03;;
3901;SDS011;1966;49.908;9.156;2023-08-07T09:57:23;8.07;;;3.53;;
3901;SDS011;1966;49.908;9.156;2023-08-07T10:02:23;9.50;;;3.27;;
3901;SDS011;1966;49.908;9.156;2023-08-07T10:07:24;6.20;;;3.20;;
3901;SDS011;1966;49.908;9.156;2023-08-07T10:12:23;4.93;;;3.10;;
3901;SDS011;1966;49.908;9.156;2023-08-07T10:17:23;5.77;;;2.83;;
3901;SDS011;1966;49.908;9.156;2023-08-07T10:22:24;7.20;;;3.17;;
3901;SDS011;1966;49.908;9.156;2023-08-07T10:27:23;4.53;;;2.70;;
3901;SDS011;1966;49.908;9.156;2023-08-07T10:32:24;5.73;;;3.23;;
3901;SDS011;1966;49.908;9.156;2023-08-07T10:37:39;4.37;;;3.23;;
3901;SDS011;1966;49.908;9.156;2023-08-07T10:42:52;4.27;;;2.90;;
3901;SDS011;1966;49.908;9.156;2023-08-07T10:48:01;6.93;;;4.50;;
3901;SDS011;1966;49.908;9.156;2023-08-07T10:53:02;4.43;;;2.80;;
3901;SDS011;1966;49.908;9.156;2023-08-07T10:58:02;3.80;;;3.40;;
3901;SDS011;1966;49.908;9.156;2023-08-07T11:03:01;4.27;;;3.07;;
3901;SDS011;1966;49.908;9.156;2023-08-07T11:08:02;4.77;;;3.80;;
3901;SDS011;1966;49.908;9.156;2023-08-07T11:13:01;4.87;;;3.30;;
3901;SDS011;1966;49.908;9.156;2023-08-07T11:18:00;5.60;;;3.80;;
3901;SDS011;1966;49.908;9.156;2023-08-07T11:23:01;8.67;;;3.60;;
3901;SDS011;1966;49.908;9.156;2023-08-07T11:28:00;4.13;;;2.60;;
3901;SDS011;1966;49.908;9.156;2023-08-07T11:32:59;4.57;;;3.30;;
3901;SDS011;1966;49.908;9.156;2023-08-07T11:37:59;6.13;;;3.70;;
3901;SDS011;1966;49.908;9.156;2023-08-07T11:42:59;5.00;;;2.90;;
3901;SDS011;1966;49.908;9.156;2023-08-07T11:47:59;10.20;;;2.80;;
3901;SDS011;1966;49.908;9.156;2023-08-07T11:52:59;6.00;;;2.70;;
3901;SDS011;1966;49.908;9.156;2023-08-07T11:58:02;3.20;;;2.40;;
3901;SDS011;1966;49.908;9.156;2023-08-07T12:03:01;5.00;;;3.17;;
3901;SDS011;1966;49.908;9.156;2023-08-07T12:08:01;7.23;;;3.20;;
3901;SDS011;1966;49.908;9.156;2023-08-07T12:13:01;4.00;;;3.10;;
3901;SDS011;1966;49.908;9.156;2023-08-07T12:18:02;7.80;;;3.00;;
3901;SDS011;1966;49.908;9.156;2023-08-07T12:23:02;5.53;;;3.67;;
3901;SDS011;1966;49.908;9.156;2023-08-07T12:28:02;4.47;;;3.20;;
3901;SDS011;1966;49.908;9.156;2023-08-07T12:33:02;4.10;;;3.20;;
3901;SDS011;1966;49.908;9.156;2023-08-07T12:38:02;8.30;;;2.93;;
3901;SDS011;1966;49.908;9.156;2023-08-07T12:43:03;5.37;;;3.20;;
3901;SDS011;1966;49.908;9.156;2023-08-07T12:48:02;6.13;;;3.50;;
3901;SDS011;1966;49.908;9.156;2023-08-07T12:53:02;7.77;;;4.20;;
3901;SDS011;1966;49.908;9.156;2023-08-07T12:58:02;3.87;;;3.40;;
3901;SDS011;1966;49.908;9.156;2023-08-07T13:03:02;3.10;;;2.80;;
3901;SDS011;1966;49.908;9.156;2023-08-07T13:08:01;8.03;;;3.20;;
3901;SDS011;1966;49.908;9.156;2023-08-07T13:13:02;5.17;;;2.80;;
3901;SDS011;1966;49.908;9.156;2023-08-07T13:18:03;4.73;;;2.83;;
3901;SDS011;1966;49.908;9.156;2023-08-07T13:23:02;8.70;;;2.90;;
3901;SDS011;1966;49.908;9.156;2023-08-07T13:28:05;7.17;;;2.67;;
3901;SDS011;1966;49.908;9.156;2023-08-07T13:33:04;4.80;;;2.87;;
3901;SDS011;1966;49.908;9.156;2023-08-07T13:38:04;3.97;;;2.83;;
3901;SDS011;1966;49.908;9.156;2023-08-07T13:43:07;4.63;;;2.80;;
3901;SDS011;1966;49.908;9.156;2023-08-07T13:48:07;7.60;;;3.00;;
3901;SDS011;1966;49.908;9.156;2023-08-07T13:53:07;6.60;;;3.13;;
3901;SDS011;1966;49.908;9.156;2023-08-07T13:58:08;5.07;;;3.60;;
3901;SDS011;1966;49.908;9.156;2023-08-07T14:03:08;5.50;;;3.13;;
3901;SDS011;1966;49.908;9.156;2023-08-07T14:08:07;8.27;;;3.27;;
3901;SDS011;1966;49.908;9.156;2023-08-07T14:13:09;3.00;;;2.53;;
3901;SDS011;1966;49.908;9.156;2023-08-07T14:18:09;5.17;;;2.57;;
3901;SDS011;1966;49.908;9.156;2023-08-07T14:23:09;5.40;;;3.10;;
3901;SDS011;1966;49.908;9.156;2023-08-07T14:28:10;2.53;;;2.20;;
3901;SDS011;1966;49.908;9.156;2023-08-07T14:33:09;3.33;;;2.40;;
3901;SDS011;1966;49.908;9.156;2023-08-07T14:38:09;3.40;;;2.30;;
3901;SDS011;1966;49.908;9.156;2023-08-07T14:43:08;2.47;;;2.17;;
3901;SDS011;1966;49.908;9.156;2023-08-07T14:48:09;3.03;;;2.30;;
3901;SDS011;1966;49.908;9.156;2023-08-07T14:53:08;4.73;;;2.67;;
3901;SDS011;1966;49.908;9.156;2023-08-07T14:58:08;4.20;;;2.33;;
3901;SDS011;1966;49.908;9.156;2023-08-07T15:03:07;4.67;;;2.40;;
3901;SDS011;1966;49.908;9.156;2023-08-07T15:08:08;4.00;;;2.57;;
3901;SDS011;1966;49.908;9.156;2023-08-07T15:13:07;2.93;;;2.20;;
3901;SDS011;1966;49.908;9.156;2023-08-07T15:18:06;4.00;;;2.13;;
3901;SDS011;1966;49.908;9.156;2023-08-07T15:23:05;3.53;;;2.30;;
3901;SDS011;1966;49.908;9.156;2023-08-07T15:28:06;3.40;;;2.40;;
3901;SDS011;1966;49.908;9.156;2023-08-07T15:33:05;4.03;;;2.50;;
3901;SDS011;1966;49.908;9.156;2023-08-07T15:38:04;2.80;;;2.40;;
3901;SDS011;1966;49.908;9.156;2023-08-07T15:43:05;2.63;;;2.43;;
3901;SDS011;1966;49.908;9.156;2023-08-07T15:48:05;4.83;;;2.17;;
3901;SDS011;1966;49.908;9.156;2023-08-07T15:53:04;10.43;;;2.90;;
3901;SDS011;1966;49.908;9.156;2023-08-07T15:58:05;5.00;;;2.97;;
3901;SDS011;1966;49.908;9.156;2023-08-07T16:03:05;3.70;;;2.80;;
3901;SDS011;1966;49.908;9.156;2023-08-07T16:08:05;4.43;;;2.50;;
3901;SDS011;1966;49.908;9.156;2023-08-07T16:13:06;4.90;;;2.30;;
3901;SDS011;1966;49.908;9.156;2023-08-07T16:18:05;4.73;;;2.53;;
3901;SDS011;1966;49.908;9.156;2023-08-07T16:23:04;4.67;;;3.00;;
3901;SDS011;1966;49.908;9.156;2023-08-07T16:28:05;4.20;;;2.70;;
3901;SDS011;1966;49.908;9.156;2023-08-07T16:33:05;4.80;;;2.43;;
3901;SDS011;1966;49.908;9.156;2023-08-07T16:38:04;2.77;;;2.47;;
3901;SDS011;1966;49.908;9.156;2023-08-07T16:43:03;3.63;;;3.03;;
3901;SDS011;1966;49.908;9.156;2023-08-07T16:48:04;4.53;;;3.20;;
3901;SDS011;1966;49.908;9.156;2023-08-07T16:53:04;4.60;;;2.63;;
3901;SDS011;1966;49.908;9.156;2023-08-07T16:58:05;3.10;;;2.80;;
3901;SDS011;1966;49.908;9.156;2023-08-07T17:03:05;4.53;;;3.30;;
3901;SDS011;1966;49.908;9.156;2023-08-07T17:08:05;5.40;;;2.73;;
3901;SDS011;1966;49.908;9.156;2023-08-07T17:13:04;3.60;;;2.90;;
3901;SDS011;1966;49.908;9.156;2023-08-07T17:18:05;3.63;;;2.70;;
3901;SDS011;1966;49.908;9.156;2023-08-07T17:23:04;3.43;;;2.73;;
3901;SDS011;1966;49.908;9.156;2023-08-07T17:28:04;4.13;;;2.87;;
3901;SDS011;1966;49.908;9.156;2023-08-07T17:33:04;6.40;;;3.13;;
3901;SDS011;1966;49.908;9.156;2023-08-07T17:38:04;5.40;;;3.60;;
3901;SDS011;1966;49.908;9.156;2023-08-07T17:43:04;8.73;;;4.60;;
3901;SDS011;1966;49.908;9.156;2023-08-07T17:48:03;13.03;;;3.53;;
3901;SDS011;1966;49.908;9.156;2023-08-07T17:53:02;5.53;;;3.30;;
3901;SDS011;1966;49.908;9.156;2023-08-07T17:58:03;8.20;;;3.03;;
3901;SDS011;1966;49.908;9.156;2023-08-07T18:03:03;5.53;;;3.33;;
3901;SDS011;1966;49.908;9.156;2023-08-07T18:08:04;4.83;;;2.63;;
3901;SDS011;1966;49.908;9.156;2023-08-07T18:13:04;15.53;;;2.63;;
3901;SDS011;1966;49.908;9.156;2023-08-07T18:18:04;7.00;;;3.43;;
3901;SDS011;1966;49.908;9.156;2023-08-07T18:23:03;4.80;;;3.40;;
3901;SDS011;1966;49.908;9.156;2023-08-07T18:28:05;6.70;;;3.07;;
3901;SDS011;1966;49.908;9.156;2023-08-07T18:33:04;5.30;;;3.17;;
3901;SDS011;1966;49.908;9.156;2023-08-07T18:38:03;4.10;;;3.03;;
3901;SDS011;1966;49.908;9.156;2023-08-07T18:43:03;3.77;;;3.40;;
3901;SDS011;1966;49.908;9.156;2023-08-07T18:48:04;5.30;;;3.57;;
3901;SDS011;1966;49.908;9.156;2023-08-07T18:53:03;6.07;;;3.73;;
3901;SDS011;1966;49.908;9.156;2023-08-07T18:58:03;5.70;;;3.47;;
3901;SDS011;1966;49.908;9.156;2023-08-07T19:03:04;6.37;;;3.33;;
3901;SDS011;1966;49.908;9.156;2023-08-07T19:08:03;5.00;;;3.83;;
3901;SDS011;1966;49.908;9.156;2023-08-07T19:13:03;5.67;;;3.87;;
3901;SDS011;1966;49.908;9.156;2023-08-07T19:18:04;5.43;;;3.73;;
3901;SDS011;1966;49.908;9.156;2023-08-07T19:23:03;7.10;;;3.60;;
3901;SDS011;1966;49.908;9.156;2023-08-07T19:28:03;5.37;;;3.60;;
3901;SDS011;1966;49.908;9.156;2023-08-07T19:33:04;8.83;;;4.03;;
3901;SDS011;1966;49.908;9.156;2023-08-07T19:38:03;4.77;;;3.67;;
3901;SDS011;1966;49.908;9.156;2023-08-07T19:43:03;6.73;;;3.87;;
3901;SDS011;1966;49.908;9.156;2023-08-07T19:48:04;9.20;;;3.83;;
3901;SDS011;1966;49.908;9.156;2023-08-07T19:53:03;5.40;;;3.80;;
3901;SDS011;1966;49.908;9.156;2023-08-07T19:58:03;6.30;;;4.20;;
3901;SDS011;1966;49.908;9.156;2023-08-07T20:03:04;5.70;;;4.20;;
3901;SDS011;1966;49.908;9.156;2023-08-07T20:08:05;5.63;;;3.53;;
3901;SDS011;1966;49.908;9.156;2023-08-07T20:13:04;5.47;;;3.67;;
3901;SDS011;1966;49.908;9.156;2023-08-07T20:18:05;5.20;;;3.70;;
3901;SDS011;1966;49.908;9.156;2023-08-07T20:23:04;11.20;;;4.13;;
3901;SDS011;1966;49.908;9.156;2023-08-07T20:28:04;4.00;;;3.20;;
3901;SDS011;1966;49.908;9.156;2023-08-07T20:33:04;5.17;;;4.40;;
3901;SDS011;1966;49.908;9.156;2023-08-07T20:38:04;5.30;;;4.50;;
3901;SDS011;1966;49.908;9.156;2023-08-07T20:43:03;5.30;;;4.13;;
3901;SDS011;1966;49.908;9.156;2023-08-07T20:48:03;4.87;;;3.67;;
3901;SDS011;1966;49.908;9.156;2023-08-07T20:53:03;4.57;;;3.90;;
3901;SDS011;1966;49.908;9.156;2023-08-07T20:58:03;7.17;;;3.80;;
3901;SDS011;1966;49.908;9.156;2023-08-07T21:03:02;6.87;;;3.60;;
3901;SDS011;1966;49.908;9.156;2023-08-07T21:08:02;3.97;;;3.57;;
3901;SDS011;1966;49.908;9.156;2023-08-07T21:13:02;7.37;;;4.30;;
3901;SDS011;1966;49.908;9.156;2023-08-07T21:18:02;4.97;;;4.07;;
3901;SDS011;1966;49.908;9.156;2023-08-07T21:23:01;9.10;;;4.10;;
3901;SDS011;1966;49.908;9.156;2023-08-07T21:28:00;6.50;;;4.30;;
3901;SDS011;1966;49.908;9.156;2023-08-07T21:33:01;6.87;;;4.40;;
3901;SDS011;1966;49.908;9.156;2023-08-07T21:38:00;4.40;;;3.80;;
3901;SDS011;1966;49.908;9.156;2023-08-07T21:42:59;6.87;;;3.93;;
3901;SDS011;1966;49.908;9.156;2023-08-07T21:48:00;6.60;;;4.10;;
3901;SDS011;1966;49.908;9.156;2023-08-07T21:52:59;8.20;;;3.90;;
3901;SDS011;1966;49.908;9.156;2023-08-07T21:57:59;6.97;;;4.00;;
3901;SDS011;1966;49.908;9.156;2023-08-07T22:02:58;7.70;;;4.10;;
3901;SDS011;1966;49.908;9.156;2023-08-07T22:07:58;4.83;;;3.90;;
3901;SDS011;1966;49.908;9.156;2023-08-07T22:12:58;5.57;;;4.07;;
3901;SDS011;1966;49.908;9.156;2023-08-07T22:17:58;4.80;;;3.83;;
3901;SDS011;1966;49.908;9.156;2023-08-07T22:22:58;7.77;;;4.27;;
3901;SDS011;1966;49.908;9.156;2023-08-07T22:27:58;9.50;;;3.70;;
3901;SDS011;1966;49.908;9.156;2023-08-07T22:32:57;5.70;;;4.03;;
3901;SDS011;1966;49.908;9.156;2023-08-07T22:38:01;6.10;;;4.00;;
3901;SDS011;1966;49.908;9.156;2023-08-07T22:43:00;14.57;;;4.73;;
3901;SDS011;1966;49.908;9.156;2023-08-07T22:47:59;7.00;;;4.43;;
3901;SDS011;1966;49.908;9.156;2023-08-07T22:53:00;7.30;;;4.03;;
3901;SDS011;1966;49.908;9.156;2023-08-07T22:57:59;4.83;;;3.90;;
3901;SDS011;1966;49.908;9.156;2023-08-07T23:02:58;7.00;;;3.63;;
3901;SDS011;1966;49.908;9.156;2023-08-07T23:07:58;4.03;;;3.60;;
3901;SDS011;1966;49.908;9.156;2023-08-07T23:12:58;8.80;;;4.20;;
3901;SDS011;1966;49.908;9.156;2023-08-07T23:17:57;4.73;;;3.83;;
3901;SDS011;1966;49.908;9.156;2023-08-07T23:22:57;6.00;;;4.30;;
3901;SDS011;1966;49.908;9.156;2023-08-07T23:27:56;4.00;;;3.60;;
3901;SDS011;1966;49.908;9.156;2023-08-07T23:32:56;8.87;;;4.00;;
3901;SDS011;1966;49.908;9.156;2023-08-07T23:37:57;5.80;;;3.77;;
3901;SDS011;1966;49.908;9.156;2023-08-07T23:42:56;4.80;;;3.63;;
3901;SDS011;1966;49.908;9.156;2023-08-07T23:47:56;9.70;;;3.80;;
3901;SDS011;1966;49.908;9.156;2023-08-07T23:52:56;4.47;;;3.83;;
3901;SDS011;1966;49.908;9.156;2023-08-07T23:57:55;4.63;;;3.87;;
